Terminal Aerodrome Forecast
Issued by NWS

Home | Current Version | Previous Version | Text Only | Print | Product List | Glossary On
Versions: 1 2 3 4 5 6 7 8 9 10 11 12 13
000
FTUS42 TJSJ 172000 AAA
TAFKPK
TAF AMD
TKPK 172022Z 1720/1818 06010KT P6SM SCT020
     FM172300 02006KT P6SM FEW022 SCT040
     FM181330 05008KT P6SM FEW021=

USA.gov is the U.S. government's official web portal to all federal, state and local government web resources and services.